createdAt,value
2022-11-04T00:00:32.136Z,68.66
2022-11-04T00:02:59.863Z,70.36
2022-11-04T00:05:27.298Z,70.96
2022-11-04T00:08:13.243Z,72.21
2022-11-04T00:10:59.247Z,69.85
2022-11-04T00:13:28.646Z,69.03
2022-11-04T00:16:15.004Z,69.79
2022-11-04T00:18:42.447Z,69.03
2022-11-04T00:21:28.776Z,67.82
2022-11-04T00:24:14.662Z,67.77
2022-11-04T00:27:00.715Z,70.42
2022-11-04T00:29:29.040Z,70.78
2022-11-04T00:32:15.219Z,69.79
2022-11-04T00:34:42.717Z,69.07
2022-11-04T00:37:10.408Z,69.59
2022-11-04T00:39:37.793Z,69.28
2022-11-04T00:42:05.398Z,69.13
2022-11-04T00:44:33.117Z,68.75
2022-11-04T00:47:00.520Z,68.41
2022-11-04T00:49:27.927Z,69.16
2022-11-04T00:51:55.801Z,68.83
2022-11-04T00:54:23.221Z,68.69
2022-11-04T00:56:50.615Z,69.29
2022-11-04T00:59:18.287Z,69.73
2022-11-04T01:01:45.909Z,69.50
2022-11-04T01:04:13.619Z,69.50
2022-11-04T01:06:41.321Z,70.00
2022-11-04T01:09:09.300Z,68.82
2022-11-04T01:11:36.743Z,68.63
2022-11-04T01:14:04.597Z,69.43
2022-11-04T01:16:32.057Z,69.88
2022-11-04T01:18:59.618Z,68.43
2022-11-04T01:21:27.321Z,69.56
2022-11-04T01:23:54.740Z,69.69
2022-11-04T01:26:24.180Z,69.41
2022-11-04T01:28:52.729Z,69.41
2022-11-04T01:31:22.427Z,69.48
2022-11-04T01:33:51.091Z,69.50
2022-11-04T01:36:19.366Z,68.77
2022-11-04T01:38:47.167Z,69.59
2022-11-04T01:41:34.016Z,69.79
2022-11-04T01:44:21.828Z,68.77
2022-11-04T01:46:51.196Z,68.63
2022-11-04T01:49:23.667Z,69.60
2022-11-04T01:51:53.679Z,70.97
2022-11-04T01:54:21.648Z,68.91
2022-11-04T01:56:49.373Z,69.24
2022-11-04T01:59:21.562Z,70.29
2022-11-04T02:01:49.372Z,69.98
2022-11-04T02:04:26.408Z,68.49
2022-11-04T02:07:01.241Z,66.76
2022-11-04T02:09:30.943Z,67.51
2022-11-04T02:12:16.952Z,67.53
2022-11-04T02:14:46.654Z,68.83
2022-11-04T02:17:20.114Z,66.83
2022-11-04T02:20:06.268Z,67.08
2022-11-04T02:22:47.955Z,70.08
2022-11-04T02:25:33.321Z,69.53
2022-11-04T02:28:15.818Z,69.17
2022-11-04T02:31:00.987Z,67.00
2022-11-04T02:33:39.732Z,70.24
2022-11-04T02:36:33.491Z,71.92
2022-11-04T02:39:19.077Z,66.65
2022-11-04T02:42:04.912Z,67.71
2022-11-04T02:44:36.944Z,69.11
2022-11-04T02:47:08.011Z,67.65
2022-11-04T02:49:38.935Z,69.13
2022-11-04T02:52:10.514Z,68.30
2022-11-04T02:54:58.655Z,69.96
2022-11-04T02:57:30.383Z,69.62
2022-11-04T03:00:09.136Z,67.42
2022-11-04T03:02:46.055Z,66.85
2022-11-04T03:05:16.463Z,67.08
2022-11-04T03:07:45.182Z,68.87
2022-11-04T03:10:34.241Z,67.27
2022-11-04T03:13:07.050Z,71.32
2022-11-04T03:15:35.584Z,71.50
2022-11-04T03:18:38.810Z,72.27
2022-11-04T03:21:07.601Z,71.81
2022-11-04T03:23:35.434Z,72.52
2022-11-04T03:26:11.695Z,72.31
2022-11-04T03:28:43.884Z,72.84
2022-11-04T03:31:23.923Z,73.10
2022-11-04T03:33:52.575Z,72.69
2022-11-04T03:36:21.907Z,71.97
2022-11-04T03:38:50.368Z,73.94
2022-11-04T03:41:37.835Z,73.73
2022-11-04T03:44:05.250Z,74.71
2022-11-04T03:46:32.968Z,73.80
2022-11-04T03:49:01.022Z,73.83
2022-11-04T03:51:28.427Z,75.25
2022-11-04T03:53:56.931Z,73.96
2022-11-04T03:57:05.892Z,73.22
2022-11-04T03:59:47.534Z,73.19
2022-11-04T04:02:21.406Z,72.19
2022-11-04T04:05:02.241Z,76.33
2022-11-04T04:07:37.713Z,76.29
2022-11-04T04:10:33.728Z,75.57
2022-11-04T04:13:03.249Z,75.91
2022-11-04T04:15:41.118Z,73.23
2022-11-04T04:18:13.484Z,75.23
2022-11-04T04:20:42.491Z,75.36
2022-11-04T04:23:31.252Z,71.70
2022-11-04T04:26:20.105Z,77.34
2022-11-04T04:28:47.891Z,74.05
2022-11-04T04:31:38.984Z,74.39
2022-11-04T04:34:06.660Z,75.07
2022-11-04T04:36:46.823Z,75.07
2022-11-04T04:39:35.911Z,74.19
2022-11-04T04:42:22.666Z,73.88
2022-11-04T04:45:05.234Z,71.83
2022-11-04T04:47:43.642Z,72.53
2022-11-04T04:50:15.122Z,72.29
2022-11-04T04:52:48.107Z,73.21
2022-11-04T04:55:16.550Z,73.31
2022-11-04T04:57:44.656Z,73.43
2022-11-04T05:00:17.531Z,72.11
2022-11-04T05:02:45.450Z,71.35
2022-11-04T05:05:13.548Z,71.98
2022-11-04T05:07:41.141Z,73.07
2022-11-04T05:10:11.634Z,74.56
2022-11-04T05:12:58.635Z,72.52
2022-11-04T05:15:27.429Z,70.77
2022-11-04T05:17:59.426Z,71.75
2022-11-04T05:20:27.324Z,72.07
2022-11-04T05:22:55.244Z,70.10
2022-11-04T05:25:22.761Z,72.12
2022-11-04T05:27:50.470Z,72.87
2022-11-04T05:30:18.092Z,72.74
2022-11-04T05:32:45.556Z,71.25
2022-11-04T05:35:13.247Z,73.51
2022-11-04T05:37:40.666Z,74.00
2022-11-04T05:40:08.603Z,74.36
2022-11-04T05:42:36.891Z,76.07
2022-11-04T05:45:04.983Z,74.75
2022-11-04T05:47:32.394Z,74.36
2022-11-04T05:50:00.116Z,76.28
2022-11-04T05:52:27.543Z,72.79
2022-11-04T05:54:54.927Z,74.06
2022-11-04T05:57:22.632Z,71.81
2022-11-04T05:59:50.089Z,71.67
2022-11-04T06:02:17.665Z,74.62
2022-11-04T06:04:45.452Z,72.56
2022-11-04T06:07:13.344Z,72.24
2022-11-04T06:09:41.072Z,70.53
2022-11-04T06:12:15.160Z,71.52
2022-11-04T06:14:43.289Z,72.05
2022-11-04T06:17:18.495Z,72.27
2022-11-04T06:19:45.945Z,75.84
2022-11-04T06:22:15.740Z,75.01
2022-11-04T06:24:43.489Z,75.83
2022-11-04T06:27:11.552Z,76.04
2022-11-04T06:29:42.263Z,75.35
2022-11-04T06:32:11.672Z,74.43
2022-11-04T06:34:40.587Z,76.64
2022-11-04T06:37:09.321Z,76.94
2022-11-04T06:39:36.914Z,74.33
2022-11-04T06:42:05.344Z,75.78
2022-11-04T06:44:34.513Z,75.45
2022-11-04T06:47:01.979Z,74.16
2022-11-04T06:49:29.660Z,74.03
2022-11-04T06:51:57.041Z,74.93
2022-11-04T06:54:24.549Z,76.10
2022-11-04T06:56:52.233Z,74.51
2022-11-04T06:59:20.619Z,73.56
2022-11-04T07:01:49.972Z,73.57
2022-11-04T07:04:17.872Z,73.05
2022-11-04T07:06:45.467Z,76.92
2022-11-04T07:09:14.350Z,76.44
2022-11-04T07:11:43.274Z,76.75
2022-11-04T07:14:10.960Z,75.73
2022-11-04T07:16:38.477Z,73.80
2022-11-04T07:19:06.735Z,74.96
2022-11-04T07:21:34.427Z,74.15
2022-11-04T07:24:02.265Z,73.89
2022-11-04T07:26:29.980Z,72.93
2022-11-04T07:28:58.108Z,73.85
2022-11-04T07:31:25.545Z,74.38
2022-11-04T07:33:53.744Z,74.70
2022-11-04T07:36:21.558Z,72.62
2022-11-04T07:38:49.187Z,73.76
2022-11-04T07:41:18.181Z,75.92
2022-11-04T07:43:52.194Z,74.62
2022-11-04T07:46:20.449Z,71.31
2022-11-04T07:48:47.966Z,73.65
2022-11-04T07:51:17.347Z,73.35
2022-11-04T07:53:45.132Z,72.92
2022-11-04T07:56:13.513Z,73.27
2022-11-04T07:58:41.322Z,73.04
2022-11-04T08:01:12.024Z,72.99
2022-11-04T08:03:39.927Z,73.65
2022-11-04T08:06:09.599Z,72.22
2022-11-04T08:08:37.578Z,73.09
2022-11-04T08:11:12.825Z,72.12
2022-11-04T08:13:43.681Z,71.36
2022-11-04T08:16:22.744Z,72.75
2022-11-04T08:18:52.621Z,75.39
2022-11-04T08:21:21.088Z,74.63
2022-11-04T08:23:48.531Z,72.88
2022-11-04T08:26:17.880Z,76.27
2022-11-04T08:28:46.066Z,73.33
2022-11-04T08:31:21.547Z,72.15
2022-11-04T08:33:49.374Z,71.27
2022-11-04T08:36:31.675Z,71.32
2022-11-04T08:38:59.798Z,71.28
2022-11-04T08:41:30.850Z,72.54
2022-11-04T08:44:04.190Z,71.20
2022-11-04T08:46:38.421Z,69.97
2022-11-04T08:49:09.971Z,70.80
2022-11-04T08:51:41.699Z,71.58
2022-11-04T08:54:09.454Z,71.19
2022-11-04T08:56:38.508Z,71.02
2022-11-04T08:59:06.813Z,71.52
2022-11-04T09:01:36.564Z,70.20
2022-11-04T09:04:05.388Z,70.83
2022-11-04T09:06:36.306Z,70.21
2022-11-04T09:09:05.731Z,71.80
2022-11-04T09:11:38.317Z,72.49
2022-11-04T09:14:06.100Z,74.29
2022-11-04T09:16:34.820Z,72.47
2022-11-04T09:19:02.343Z,71.85
2022-11-04T09:21:29.860Z,72.16
2022-11-04T09:23:57.602Z,73.42
2022-11-04T09:26:25.634Z,72.23
2022-11-04T09:28:56.682Z,73.48
2022-11-04T09:31:25.509Z,71.92
2022-11-04T09:33:55.240Z,71.63
2022-11-04T09:36:23.088Z,71.82
2022-11-04T09:38:50.920Z,72.00
2022-11-04T09:41:47.894Z,70.84
2022-11-04T09:45:15.379Z,71.02
2022-11-04T09:47:39.490Z,70.96
2022-11-04T09:50:11.401Z,72.33
2022-11-04T09:52:42.308Z,72.67
2022-11-04T09:55:12.940Z,72.62
2022-11-04T09:57:40.504Z,73.20
2022-11-04T10:00:15.096Z,74.66
2022-11-04T10:02:50.709Z,75.39
2022-11-04T10:05:18.003Z,74.32
2022-11-04T10:08:23.491Z,74.52
2022-11-04T10:11:08.468Z,75.95
2022-11-04T10:13:58.167Z,77.24
2022-11-04T10:16:44.276Z,75.29
2022-11-04T10:19:47.958Z,75.52
2022-11-04T10:22:35.321Z,75.06
2022-11-04T10:25:09.910Z,74.80
2022-11-04T10:27:39.679Z,74.63
2022-11-04T10:30:16.634Z,75.44
2022-11-04T10:32:59.553Z,77.60
2022-11-04T10:35:35.378Z,76.44
2022-11-04T10:38:33.941Z,79.08
2022-11-04T10:41:07.034Z,74.38
2022-11-04T10:43:37.836Z,74.29
2022-11-04T10:46:45.343Z,73.70
2022-11-04T10:50:00.093Z,74.92
2022-11-04T10:52:35.416Z,76.49
2022-11-04T10:55:03.040Z,75.91
2022-11-04T10:57:30.983Z,76.67
2022-11-04T11:00:03.910Z,79.67
2022-11-04T11:02:38.149Z,77.18
2022-11-04T11:05:17.613Z,75.47
2022-11-04T11:07:46.907Z,77.09
2022-11-04T11:10:25.337Z,75.06
2022-11-04T11:13:08.197Z,75.49
2022-11-04T11:15:38.455Z,76.42
2022-11-04T11:18:06.130Z,76.64
2022-11-04T11:20:37.606Z,73.41
2022-11-04T11:23:10.351Z,74.36
2022-11-04T11:25:45.282Z,73.48
2022-11-04T11:28:21.916Z,73.62
2022-11-04T11:30:49.498Z,74.04
2022-11-04T11:33:24.387Z,76.29
2022-11-04T11:35:59.258Z,73.50
2022-11-04T11:38:30.074Z,75.25
2022-11-04T11:41:24.557Z,73.29
2022-11-04T11:43:53.903Z,74.77
2022-11-04T11:46:26.960Z,74.82
2022-11-04T11:49:03.473Z,73.82
2022-11-04T11:51:33.158Z,74.46
2022-11-04T11:54:16.273Z,75.21
2022-11-04T12:03:08.284Z,74.44
2022-11-04T12:09:23.335Z,75.76
2022-11-04T12:12:16.575Z,75.32
2022-11-04T12:14:56.418Z,75.09
2022-11-04T12:17:39.433Z,74.79
2022-11-04T12:20:24.839Z,74.77
2022-11-04T12:23:04.523Z,74.95
2022-11-04T12:25:36.411Z,74.22
2022-11-04T12:28:28.793Z,74.16
2022-11-04T12:31:11.306Z,76.60
2022-11-04T12:33:46.674Z,75.69
2022-11-04T12:36:25.565Z,76.46
2022-11-04T12:39:03.135Z,74.62
2022-11-04T12:42:18.988Z,74.32
2022-11-04T12:44:49.531Z,73.54
2022-11-04T12:47:36.641Z,73.46
2022-11-04T12:50:35.036Z,73.09
2022-11-04T12:53:21.324Z,74.40
2022-11-04T12:56:11.131Z,74.29
2022-11-04T12:59:09.311Z,73.87
2022-11-04T13:01:47.637Z,74.08
2022-11-04T13:04:20.590Z,73.54
2022-11-04T13:07:00.675Z,75.06
2022-11-04T13:09:37.111Z,74.52
2022-11-04T13:12:23.226Z,73.96
2022-11-04T13:14:54.986Z,75.06
2022-11-04T13:17:26.701Z,74.75
2022-11-04T13:19:56.844Z,75.17
2022-11-04T13:22:27.904Z,76.38
2022-11-04T13:25:07.607Z,76.32
2022-11-04T13:27:40.650Z,73.87
2022-11-04T13:30:22.168Z,74.06
2022-11-04T13:32:59.274Z,74.51
2022-11-04T13:35:32.249Z,73.82
2022-11-04T13:38:08.815Z,74.52
2022-11-04T13:41:24.136Z,74.52
2022-11-04T13:44:03.344Z,75.02
2022-11-04T13:46:33.683Z,75.46
2022-11-04T13:49:06.903Z,74.12
2022-11-04T13:51:41.619Z,75.43
2022-11-04T13:54:26.853Z,73.75
2022-11-04T13:57:15.173Z,74.02
2022-11-04T13:59:44.407Z,75.05
2022-11-04T14:02:12.050Z,72.60
2022-11-04T14:04:40.886Z,74.13
2022-11-04T14:07:10.740Z,74.11
2022-11-04T14:09:44.342Z,74.29
2022-11-04T14:12:14.591Z,73.47
2022-11-04T14:14:52.849Z,74.45
2022-11-04T14:17:32.781Z,77.71
2022-11-04T14:20:11.509Z,75.71
2022-11-04T14:22:55.894Z,72.90
2022-11-04T14:25:33.986Z,75.37
2022-11-04T14:28:17.185Z,74.93
2022-11-04T14:30:51.329Z,75.67
2022-11-04T14:33:34.230Z,74.61
2022-11-04T14:36:30.181Z,73.58
2022-11-04T14:39:02.262Z,71.67
2022-11-04T14:41:31.482Z,70.40
2022-11-04T14:44:01.143Z,71.66
2022-11-04T14:46:43.989Z,70.20
2022-11-04T14:49:41.113Z,69.76
2022-11-04T14:52:26.864Z,70.78
2022-11-04T14:54:58.537Z,69.67
2022-11-04T14:57:26.300Z,70.50
2022-11-04T14:59:54.006Z,69.66
2022-11-04T15:02:22.998Z,69.58
2022-11-04T15:04:52.311Z,70.96
2022-11-04T15:07:24.182Z,71.07
2022-11-04T15:09:51.399Z,69.38
2022-11-04T15:12:37.667Z,69.41
2022-11-04T15:15:23.969Z,69.68
2022-11-04T15:17:51.200Z,71.01
2022-11-04T15:20:22.271Z,71.03
2022-11-04T15:22:49.532Z,72.30
2022-11-04T15:25:16.889Z,70.91
2022-11-04T15:27:44.955Z,71.28
2022-11-04T15:30:20.749Z,72.62
2022-11-04T15:32:58.477Z,71.06
2022-11-04T15:35:25.913Z,72.66
2022-11-04T15:37:54.212Z,72.42
2022-11-04T15:40:22.150Z,70.91
2022-11-04T15:42:49.644Z,70.24
2022-11-04T15:45:31.666Z,72.66
2022-11-04T15:48:17.679Z,70.26
2022-11-04T15:50:45.487Z,69.25
2022-11-04T15:53:14.301Z,68.92
2022-11-04T15:55:42.776Z,70.80
2022-11-04T15:58:11.248Z,70.42
2022-11-04T16:00:38.660Z,70.38
2022-11-04T16:03:07.502Z,70.32
2022-11-04T16:05:37.470Z,70.92
2022-11-04T16:08:21.181Z,67.95
2022-11-04T16:10:49.292Z,67.61
2022-11-04T16:13:16.558Z,68.58
2022-11-04T16:15:48.867Z,68.64
2022-11-04T16:18:35.126Z,68.30
2022-11-04T16:21:07.036Z,67.62
2022-11-04T16:23:35.361Z,67.73
2022-11-04T16:26:06.181Z,66.88
2022-11-04T16:28:37.611Z,66.75
2022-11-04T16:31:06.669Z,65.21
2022-11-04T16:33:34.013Z,67.71
2022-11-04T16:36:01.800Z,67.70
2022-11-04T16:38:29.406Z,66.21
2022-11-04T16:40:56.887Z,68.35
2022-11-04T16:43:24.364Z,66.96
2022-11-04T16:45:54.063Z,66.75
2022-11-04T16:48:22.003Z,66.31
2022-11-04T16:50:49.349Z,65.72
2022-11-04T16:53:16.836Z,66.27
2022-11-04T16:55:43.990Z,65.09
2022-11-04T16:58:13.432Z,65.78
2022-11-04T17:00:40.960Z,68.23
2022-11-04T17:03:21.011Z,65.89
2022-11-04T17:05:50.903Z,67.10
2022-11-04T17:08:18.274Z,65.31
2022-11-04T17:10:46.780Z,67.40
2022-11-04T17:13:14.557Z,65.96
2022-11-04T17:15:41.817Z,67.39
2022-11-04T17:18:09.951Z,65.09
2022-11-04T17:20:37.624Z,65.75
2022-11-04T17:23:05.066Z,64.83
2022-11-04T17:25:32.564Z,66.42
2022-11-04T17:28:00.206Z,66.10
2022-11-04T17:30:27.639Z,64.45
2022-11-04T17:32:55.281Z,62.75
2022-11-04T17:35:22.884Z,61.54
2022-11-04T17:37:53.738Z,63.63
2022-11-04T17:40:21.822Z,62.68
2022-11-04T17:43:11.865Z,62.96
2022-11-04T17:45:41.274Z,62.70
2022-11-04T17:48:10.262Z,61.67
2022-11-04T17:50:38.386Z,62.13
2022-11-04T17:53:05.631Z,61.96
2022-11-04T17:55:36.715Z,61.76
2022-11-04T17:58:04.087Z,65.11
2022-11-04T18:00:31.425Z,63.47
2022-11-04T18:02:59.133Z,63.72
2022-11-04T18:05:26.476Z,62.73
2022-11-04T18:07:55.075Z,64.71
2022-11-04T18:10:22.823Z,63.54
2022-11-04T18:12:50.876Z,65.89
2022-11-04T18:15:18.935Z,66.89
2022-11-04T18:17:46.858Z,64.04
2022-11-04T18:20:15.451Z,63.57
2022-11-04T18:22:43.203Z,64.05
2022-11-04T18:25:11.444Z,63.45
2022-11-04T18:27:38.706Z,63.16
2022-11-04T18:30:06.554Z,62.01
2022-11-04T18:32:34.352Z,62.17
2022-11-04T18:35:01.880Z,61.45
2022-11-04T18:37:29.368Z,60.15
2022-11-04T18:39:56.992Z,60.83
2022-11-04T18:42:24.591Z,61.26
2022-11-04T18:44:52.022Z,60.55
2022-11-04T18:47:20.294Z,60.99
2022-11-04T18:49:47.982Z,61.53
2022-11-04T18:52:15.391Z,60.93
2022-11-04T18:54:43.403Z,60.04
2022-11-04T18:57:11.989Z,60.36
2022-11-04T18:59:39.374Z,60.58
2022-11-04T19:02:07.485Z,59.53
2022-11-04T19:04:35.095Z,59.54
2022-11-04T19:07:04.441Z,59.94
2022-11-04T19:09:48.023Z,59.02
2022-11-04T19:12:34.755Z,59.91
2022-11-04T19:15:04.546Z,59.52
2022-11-04T19:17:32.017Z,59.34
2022-11-04T19:19:59.347Z,59.13
2022-11-04T19:22:27.150Z,58.80
2022-11-04T19:24:54.527Z,58.79
2022-11-04T19:27:25.001Z,59.32
2022-11-04T19:29:52.709Z,59.08
2022-11-04T19:32:19.991Z,58.77
2022-11-04T19:34:47.366Z,58.70
2022-11-04T19:37:15.350Z,58.88
2022-11-04T19:39:42.942Z,58.46
2022-11-04T19:42:29.780Z,58.68
2022-11-04T19:44:57.630Z,58.52
2022-11-04T19:47:25.024Z,58.92
2022-11-04T19:49:52.424Z,58.70
2022-11-04T19:52:20.463Z,58.69
2022-11-04T19:54:47.663Z,59.23
2022-11-04T19:57:14.905Z,58.97
2022-11-04T19:59:42.568Z,59.36
2022-11-04T20:02:11.309Z,59.59
2022-11-04T20:04:38.876Z,59.82
2022-11-04T20:07:06.330Z,60.29
2022-11-04T20:09:33.711Z,60.15
2022-11-04T20:12:21.282Z,59.66
2022-11-04T20:14:48.658Z,59.86
2022-11-04T20:17:16.312Z,60.11
2022-11-04T20:19:43.878Z,59.84
2022-11-04T20:22:12.334Z,59.80
2022-11-04T20:24:40.001Z,59.50
2022-11-04T20:27:07.439Z,59.31
2022-11-04T20:29:34.909Z,59.54
2022-11-04T20:32:02.447Z,59.73
2022-11-04T20:34:32.936Z,59.71
2022-11-04T20:37:00.692Z,59.81
2022-11-04T20:39:28.371Z,60.13
2022-11-04T20:41:55.926Z,59.67
2022-11-04T20:44:23.325Z,59.83
2022-11-04T20:46:51.418Z,59.92
2022-11-04T20:49:18.810Z,59.67
2022-11-04T20:51:54.521Z,59.56
2022-11-04T20:54:23.165Z,59.48
2022-11-04T20:56:50.538Z,59.79
2022-11-04T20:59:18.438Z,60.20
2022-11-04T21:01:47.384Z,60.52
2022-11-04T21:04:18.149Z,60.14
2022-11-04T21:06:46.230Z,60.81
2022-11-04T21:09:14.292Z,60.27
2022-11-04T21:11:41.910Z,60.69
2022-11-04T21:14:14.981Z,61.23
2022-11-04T21:16:42.445Z,61.63
2022-11-04T21:19:11.861Z,61.23
2022-11-04T21:21:40.666Z,62.19
2022-11-04T21:24:08.094Z,62.22
2022-11-04T21:26:35.998Z,62.60
2022-11-04T21:29:06.037Z,62.46
2022-11-04T21:31:34.518Z,64.12
2022-11-04T21:34:02.254Z,64.25
2022-11-04T21:36:29.460Z,66.54
2022-11-04T21:38:56.877Z,66.23
2022-11-04T21:41:25.987Z,67.10
2022-11-04T21:44:00.669Z,67.53
2022-11-04T21:46:29.213Z,68.61
2022-11-04T21:48:56.611Z,67.42
2022-11-04T21:51:24.556Z,69.09
2022-11-04T21:53:52.402Z,71.79
2022-11-04T21:56:20.537Z,70.68
2022-11-04T21:58:47.809Z,72.01
2022-11-04T22:01:16.880Z,72.37
2022-11-04T22:03:44.760Z,72.19
2022-11-04T22:06:12.949Z,70.71
2022-11-04T22:08:43.651Z,72.71
2022-11-04T22:11:12.406Z,71.08
2022-11-04T22:13:39.735Z,72.00
2022-11-04T22:16:18.314Z,71.71
2022-11-04T22:18:46.043Z,71.36
2022-11-04T22:21:14.380Z,70.71
2022-11-04T22:23:41.675Z,71.81
2022-11-04T22:26:12.770Z,71.73
2022-11-04T22:28:39.996Z,72.47
2022-11-04T22:31:11.857Z,71.88
2022-11-04T22:33:39.405Z,75.04
2022-11-04T22:36:06.896Z,72.78
2022-11-04T22:38:34.501Z,70.65
2022-11-04T22:41:02.393Z,72.67
2022-11-04T22:43:29.593Z,71.52
2022-11-04T22:45:56.992Z,70.89
2022-11-04T22:48:24.587Z,70.25
2022-11-04T22:50:58.125Z,71.45
2022-11-04T22:53:25.869Z,72.98
2022-11-04T22:55:53.056Z,70.07
2022-11-04T22:58:20.263Z,70.78
2022-11-04T23:00:53.253Z,70.20
2022-11-04T23:03:20.485Z,69.66
2022-11-04T23:05:48.040Z,69.89
2022-11-04T23:08:15.234Z,69.28
2022-11-04T23:11:01.087Z,69.60
2022-11-04T23:13:47.195Z,67.07
2022-11-04T23:16:32.863Z,67.80
2022-11-04T23:19:00.342Z,70.04
2022-11-04T23:21:46.366Z,68.58
2022-11-04T23:24:32.819Z,69.24
2022-11-04T23:27:00.015Z,69.02
2022-11-04T23:29:46.277Z,68.16
2022-11-04T23:32:13.520Z,68.95
2022-11-04T23:34:59.883Z,68.50
2022-11-04T23:37:27.106Z,68.52
2022-11-04T23:39:54.627Z,68.51
2022-11-04T23:42:22.933Z,67.62
2022-11-04T23:45:12.468Z,68.16
2022-11-04T23:47:58.644Z,68.49
2022-11-04T23:50:45.739Z,67.70
2022-11-04T23:53:32.566Z,65.66
2022-11-04T23:56:18.578Z,70.13
2022-11-04T23:59:04.772Z,68.47
